Time,TemperatureF,DewpointF,PressureIn,WindDirection,WindDirectionDegrees,WindSpeedMPH,WindSpeedGustMPH,Humidity,HourlyPrecipIn,Conditions,Clouds,dailyrainin,SolarRadiationWatts/m^2,SoftwareType,DateUTC
2013-05-22 01:21:00,32.0,24.0,-100.00,ESE,107,2.0,4.0,73,-99.99,,,0.00,0.000000,,2013-05-22 07:21:00,
2013-05-22 01:32:00,32.0,24.0,-100.00,ESE,107,2.0,4.0,73,-99.99,,,0.00,0.000000,,2013-05-22 07:32:00,
2013-05-22 01:42:00,32.0,24.0,-100.00,ESE,107,2.0,4.0,73,-99.99,,,0.00,0.000000,,2013-05-22 07:42:00,
2013-05-22 01:52:00,32.0,24.0,-100.00,ESE,107,2.0,4.0,73,-99.99,,,0.00,0.000000,,2013-05-22 07:52:00,
2013-05-22 02:22:00,31.0,25.0,-100.00,SE,126,2.0,6.0,78,0.00,,,0.00,0.000000,,2013-05-22 08:22:00,
2013-05-22 02:32:00,31.0,25.0,-100.00,SE,126,2.0,6.0,78,0.00,,,0.00,0.000000,,2013-05-22 08:32:00,
2013-05-22 02:42:00,31.0,25.0,-100.00,SE,126,2.0,6.0,78,0.00,,,0.00,0.000000,,2013-05-22 08:42:00,
2013-05-22 02:52:00,31.0,25.0,-100.00,SE,126,2.0,6.0,78,0.00,,,0.00,0.000000,,2013-05-22 08:52:00,
2013-05-22 03:22:00,30.0,24.0,-100.00,ESE,123,2.0,5.0,78,0.00,,,0.00,0.000000,,2013-05-22 09:22:00,
2013-05-22 03:33:00,30.0,24.0,-100.00,ESE,123,2.0,5.0,78,0.00,,,0.00,0.000000,,2013-05-22 09:33:00,
2013-05-22 03:42:00,30.0,24.0,-100.00,ESE,123,2.0,5.0,78,0.00,,,0.00,0.000000,,2013-05-22 09:42:00,
2013-05-22 03:53:00,30.0,24.0,-100.00,ESE,123,2.0,5.0,78,0.00,,,0.00,0.000000,,2013-05-22 09:53:00,
2013-05-22 04:23:00,31.0,24.0,-100.00,North,4,1.0,6.0,76,0.00,,,0.00,0.000000,,2013-05-22 10:23:00,
2013-05-22 04:33:00,31.0,24.0,-100.00,North,4,1.0,6.0,76,0.00,,,0.00,0.000000,,2013-05-22 10:33:00,
2013-05-22 04:42:00,31.0,24.0,-100.00,North,4,1.0,6.0,76,0.00,,,0.00,0.000000,,2013-05-22 10:42:00,
2013-05-22 04:52:00,31.0,24.0,-100.00,North,4,1.0,6.0,76,0.00,,,0.00,0.000000,,2013-05-22 10:52:00,
2013-05-22 05:22:00,28.0,23.0,-100.00,ESE,107,3.0,6.0,80,0.00,,,0.00,0.000000,,2013-05-22 11:22:00,
2013-05-22 05:32:00,28.0,23.0,-100.00,ESE,107,3.0,6.0,80,0.00,,,0.00,0.000000,,2013-05-22 11:32:00,
2013-05-22 05:42:00,28.0,23.0,-100.00,ESE,107,3.0,6.0,80,0.00,,,0.00,0.000000,,2013-05-22 11:42:00,
2013-05-22 05:52:00,28.0,23.0,-100.00,ESE,107,3.0,6.0,80,0.00,,,0.00,0.000000,,2013-05-22 11:52:00,
2013-05-22 06:22:00,29.0,23.0,-100.00,SE,124,2.0,6.0,78,0.00,,,0.00,1.000000,,2013-05-22 12:22:00,
2013-05-22 06:32:00,29.0,23.0,-100.00,SE,124,2.0,6.0,78,0.00,,,0.00,1.000000,,2013-05-22 12:32:00,
2013-05-22 06:42:00,29.0,23.0,-100.00,SE,124,2.0,6.0,78,0.00,,,0.00,1.000000,,2013-05-22 12:42:00,
2013-05-22 06:52:00,29.0,23.0,-100.00,SE,124,2.0,6.0,78,0.00,,,0.00,1.000000,,2013-05-22 12:52:00,
2013-05-22 07:22:00,30.0,24.0,-100.00,East,79,2.0,5.0,77,0.00,,,0.00,12.000000,,2013-05-22 13:22:00,
2013-05-22 07:32:00,30.0,24.0,-100.00,East,79,2.0,5.0,77,0.00,,,0.00,12.000000,,2013-05-22 13:32:00,
2013-05-22 07:42:00,30.0,24.0,-100.00,East,79,2.0,5.0,77,0.00,,,0.00,12.000000,,2013-05-22 13:42:00,
2013-05-22 07:52:00,30.0,24.0,-100.00,East,79,2.0,5.0,77,0.00,,,0.00,12.000000,,2013-05-22 13:52:00,
2013-05-22 08:21:00,39.0,26.0,-100.00,North,350,1.0,5.0,59,0.00,,,-99.99,97.000000,,2013-05-22 14:21:00,
2013-05-22 08:32:00,39.0,26.0,-100.00,North,350,1.0,5.0,59,0.00,,,-99.99,97.000000,,2013-05-22 14:32:00,
2013-05-22 08:42:00,39.0,26.0,-100.00,North,350,1.0,5.0,59,0.00,,,-99.99,97.000000,,2013-05-22 14:42:00,
2013-05-22 08:52:00,39.0,26.0,-100.00,North,350,1.0,5.0,59,0.00,,,-99.99,97.000000,,2013-05-22 14:52:00,
2013-05-22 09:22:00,52.0,22.0,-100.00,ESE,111,2.0,4.0,30,0.00,,,-99.99,457.000000,,2013-05-22 15:22:00,
2013-05-22 09:32:00,52.0,22.0,-100.00,ESE,111,2.0,4.0,30,0.00,,,-99.99,457.000000,,2013-05-22 15:32:00,
2013-05-22 09:42:00,52.0,22.0,-100.00,ESE,111,2.0,4.0,30,0.00,,,-99.99,457.000000,,2013-05-22 15:42:00,
2013-05-22 09:53:00,52.0,22.0,-100.00,ESE,111,2.0,4.0,30,0.00,,,-99.99,457.000000,,2013-05-22 15:53:00,
2013-05-22 10:23:00,55.0,23.0,-100.00,NE,53,5.0,16.0,28,0.00,,,0.00,697.000000,,2013-05-22 16:23:00,
2013-05-22 10:32:00,55.0,23.0,-100.00,NE,53,5.0,16.0,28,0.00,,,0.00,697.000000,,2013-05-22 16:32:00,
2013-05-22 10:42:00,55.0,23.0,-100.00,NE,53,5.0,16.0,28,0.00,,,0.00,697.000000,,2013-05-22 16:42:00,
2013-05-22 10:52:00,55.0,23.0,-100.00,NE,53,5.0,16.0,28,0.00,,,0.00,697.000000,,2013-05-22 16:52:00,
2013-05-22 11:23:00,53.0,21.0,-100.00,SSE,147,3.0,11.0,28,0.00,,,0.00,416.000000,,2013-05-22 17:23:00,
2013-05-22 11:33:00,53.0,21.0,-100.00,SSE,147,3.0,11.0,28,0.00,,,0.00,416.000000,,2013-05-22 17:33:00,
2013-05-22 11:42:00,53.0,21.0,-100.00,SSE,147,3.0,11.0,28,0.00,,,0.00,416.000000,,2013-05-22 17:42:00,
2013-05-22 11:53:00,53.0,21.0,-100.00,SSE,147,3.0,11.0,28,0.00,,,0.00,416.000000,,2013-05-22 17:53:00,
2013-05-22 12:22:00,55.0,21.0,-100.00,ENE,78,4.0,10.0,26,0.00,,,0.00,476.000000,,2013-05-22 18:22:00,
2013-05-22 12:33:00,55.0,21.0,-100.00,ENE,78,4.0,10.0,26,0.00,,,0.00,476.000000,,2013-05-22 18:33:00,
2013-05-22 12:42:00,55.0,21.0,-100.00,ENE,78,4.0,10.0,26,0.00,,,0.00,476.000000,,2013-05-22 18:42:00,
2013-05-22 12:52:00,55.0,21.0,-100.00,ENE,78,4.0,10.0,26,0.00,,,0.00,476.000000,,2013-05-22 18:52:00,
2013-05-22 13:21:00,58.0,19.0,-100.00,South,186,5.0,17.0,22,0.00,,,0.00,780.000000,,2013-05-22 19:21:00,
2013-05-22 13:32:00,58.0,19.0,-100.00,South,186,5.0,17.0,22,0.00,,,0.00,780.000000,,2013-05-22 19:32:00,
2013-05-22 13:42:00,58.0,19.0,-100.00,South,186,5.0,17.0,22,0.00,,,0.00,780.000000,,2013-05-22 19:42:00,
2013-05-22 13:52:00,58.0,19.0,-100.00,South,186,5.0,17.0,22,0.00,,,0.00,780.000000,,2013-05-22 19:52:00,
2013-05-22 14:22:00,61.0,18.0,-100.00,SW,217,5.0,16.0,19,0.00,,,0.00,815.000000,,2013-05-22 20:22:00,
2013-05-22 14:32:00,61.0,18.0,-100.00,SW,217,5.0,16.0,19,0.00,,,0.00,815.000000,,2013-05-22 20:32:00,
2013-05-22 14:42:00,61.0,18.0,-100.00,SW,217,5.0,16.0,19,0.00,,,0.00,815.000000,,2013-05-22 20:42:00,
2013-05-22 14:51:00,61.0,18.0,-100.00,SW,217,5.0,16.0,19,0.00,,,0.00,815.000000,,2013-05-22 20:51:00,
2013-05-22 15:21:00,59.0,14.0,-100.00,SSW,204,7.0,16.0,17,0.00,,,0.00,599.000000,,2013-05-22 21:21:00,
2013-05-22 15:32:00,59.0,14.0,-100.00,SSW,204,7.0,16.0,17,0.00,,,0.00,599.000000,,2013-05-22 21:32:00,
2013-05-22 15:42:00,59.0,14.0,-100.00,SSW,204,7.0,16.0,17,0.00,,,0.00,599.000000,,2013-05-22 21:42:00,
2013-05-22 15:52:00,59.0,14.0,-100.00,SSW,204,7.0,16.0,17,0.00,,,0.00,599.000000,,2013-05-22 21:52:00,
2013-05-22 17:21:00,61.0,16.0,-100.00,SSE,150,7.0,14.0,17,-99.99,,,0.00,340.000000,,2013-05-22 23:21:00,
2013-05-22 17:32:00,61.0,16.0,-100.00,SSE,150,7.0,14.0,17,-99.99,,,0.00,340.000000,,2013-05-22 23:32:00,
2013-05-22 17:42:00,61.0,16.0,-100.00,SSE,150,7.0,14.0,17,-99.99,,,0.00,340.000000,,2013-05-22 23:42:00,
2013-05-22 17:52:00,61.0,16.0,-100.00,SSE,150,7.0,14.0,17,-99.99,,,0.00,340.000000,,2013-05-22 23:52:00,
2013-05-22 18:22:00,58.0,16.0,-100.00,South,177,7.0,18.0,19,0.00,,,0.00,280.000000,,2013-05-23 00:22:00,
2013-05-22 18:32:00,58.0,16.0,-100.00,South,177,7.0,18.0,19,0.00,,,0.00,280.000000,,2013-05-23 00:32:00,
2013-05-22 18:42:00,58.0,16.0,-100.00,South,177,7.0,18.0,19,0.00,,,0.00,280.000000,,2013-05-23 00:42:00,
2013-05-22 18:51:00,58.0,16.0,-100.00,South,177,7.0,18.0,19,0.00,,,0.00,280.000000,,2013-05-23 00:51:00,
2013-05-22 19:22:00,52.0,25.0,-100.00,SE,124,10.0,27.0,35,0.00,,,0.00,37.000000,,2013-05-23 01:22:00,
2013-05-22 19:32:00,52.0,25.0,-100.00,SE,124,10.0,27.0,35,0.00,,,0.00,37.000000,,2013-05-23 01:32:00,
2013-05-22 19:42:00,52.0,25.0,-100.00,SE,124,10.0,27.0,35,0.00,,,0.00,37.000000,,2013-05-23 01:42:00,
2013-05-22 19:52:00,52.0,25.0,-100.00,SE,124,10.0,27.0,35,0.00,,,0.00,37.000000,,2013-05-23 01:52:00,
2013-05-22 20:21:00,48.0,30.0,-100.00,SE,143,4.0,22.0,50,0.00,,,0.00,45.000000,,2013-05-23 02:21:00,
2013-05-22 20:32:00,48.0,30.0,-100.00,SE,143,4.0,22.0,50,0.00,,,0.00,45.000000,,2013-05-23 02:32:00,
2013-05-22 20:42:00,48.0,30.0,-100.00,SE,143,4.0,22.0,50,0.00,,,0.00,45.000000,,2013-05-23 02:42:00,
2013-05-22 20:51:00,48.0,30.0,-100.00,SE,143,4.0,22.0,50,0.00,,,0.00,45.000000,,2013-05-23 02:51:00,
2013-05-22 21:21:00,46.0,31.0,-100.00,SE,131,9.0,16.0,55,0.00,,,0.00,5.000000,,2013-05-23 03:21:00,
2013-05-22 21:33:00,46.0,31.0,-100.00,SE,131,9.0,16.0,55,0.00,,,0.00,5.000000,,2013-05-23 03:33:00,
2013-05-22 21:43:00,46.0,31.0,-100.00,SE,131,9.0,16.0,55,0.00,,,0.00,5.000000,,2013-05-23 03:43:00,
2013-05-22 21:53:00,46.0,31.0,-100.00,SE,131,9.0,16.0,55,0.00,,,0.00,5.000000,,2013-05-23 03:53:00,
2013-05-22 22:22:00,46.0,31.0,-100.00,SE,133,8.0,20.0,56,0.00,,,0.00,0.000000,,2013-05-23 04:22:00,
2013-05-22 22:33:00,46.0,31.0,-100.00,SE,133,8.0,20.0,56,0.00,,,0.00,0.000000,,2013-05-23 04:33:00,
2013-05-22 22:43:00,46.0,31.0,-100.00,SE,133,8.0,20.0,56,0.00,,,0.00,0.000000,,2013-05-23 04:43:00,
2013-05-22 22:52:00,46.0,31.0,-100.00,SE,133,8.0,20.0,56,0.00,,,0.00,0.000000,,2013-05-23 04:52:00,
2013-05-22 23:22:00,44.0,31.0,-100.00,ESE,114,7.0,16.0,60,0.00,,,0.00,0.000000,,2013-05-23 05:22:00,
2013-05-22 23:32:00,44.0,31.0,-100.00,ESE,114,7.0,16.0,60,0.00,,,0.00,0.000000,,2013-05-23 05:32:00,
2013-05-22 23:42:00,44.0,31.0,-100.00,ESE,114,7.0,16.0,60,0.00,,,0.00,0.000000,,2013-05-23 05:42:00,
2013-05-22 23:52:00,44.0,31.0,-100.00,ESE,114,7.0,16.0,60,0.00,,,0.00,0.000000,,2013-05-23 05:52:00,